Main page
METAR-TAF:

METAR-TAF

Airports :

William R. Fairchild International Airport

Port Angeles, Washington, United States

latitude: 48-07-20N, longitude: 123-30-19W, elevation: 285 ft

Current weather observation

The report was made 15 minutes ago, at 12:53 UTC
Wind 3 mph from the Southwest
Temperature 52°F
Humidity 82%
Pressure 29.98 in. Hg
Visibility: 10 miles
Clear sky

METAR: KCLM 211253Z AUTO 22003KT 10SM CLR 11/08 A2998 RMK AO2 SLP152 T01110083

Time: 06:08 (13:08 UTC)

Forecast

The report was made 1 hour and 44 minutes ago, at 11:24 UTC
Forecast valid from 21 at 12 UTC to 22 at 12 UTC
Wind 7 mph from the West/Southwest
Visibility: 6 miles
Clear sky
From 21 at 1900 UTC
Wind 9 mph from the West/Northwest
Visibility: 6 miles
Clear sky

TAF: KCLM 211124Z 2112/2212 25006KT P6SM SKC FM211900 29008KT P6SM SKC

Weather observations and forecasts of more than 4000 airports (METAR and TAF reports).

The available stations are represented by yellow and red dots on the map.

Hover mouse over dot to see the name of the station.

Then click to see weather observations and forecasts.

To change the map : click on the green buttons with a black cross to zoom in, on the green button with a dash to zoom out, or on the green arrows for adjacent maps.


METAR-TAF: